Time;durP1;ratioP1;P1;durP2;ratioP2;P2;SDS_P1;SDS_P2;PMS_P1;PMS_P2;Temp;Humidity;BMP_temperature;BMP_pressure;BME280_temperature;BME280_humidity;BME280_pressure;Samples;Min_cycle;Max_cycle;Signal;HPM_P1;HPM_P2
2020/12/25 00:05:33;;;;;;;5.33;2.85;;;;;;;3.94;100.00;98143.55;4295512;83;28579;-80
2020/12/25 00:11:37;;;;;;;8.33;4.25;;;;;;;4.04;100.00;98154.56;4273135;83;28579;-80
2020/12/25 00:17:39;;;;;;;6.35;4.20;;;;;;;4.10;100.00;98160.36;4189793;84;28605;-82
2020/12/25 00:23:41;;;;;;;6.60;4.12;;;;;;;4.10;100.00;98176.84;4187745;84;28617;-82
2020/12/25 00:29:43;;;;;;;7.67;4.70;;;;;;;4.07;100.00;98182.06;4188368;84;28561;-84
2020/12/25 00:35:45;;;;;;;6.30;4.08;;;;;;;3.96;100.00;98196.02;4202286;84;28587;-81
2020/12/25 00:41:50;;;;;;;5.78;4.37;;;;;;;3.89;100.00;98202.16;4190847;84;28601;-83
2020/12/25 00:47:52;;;;;;;4.53;3.30;;;;;;;3.82;100.00;98216.50;4168670;84;28600;-83
2020/12/25 00:53:54;;;;;;;3.90;2.90;;;;;;;3.93;100.00;98212.40;4188088;84;28557;-81
2020/12/25 00:59:58;;;;;;;4.53;3.22;;;;;;;3.84;100.00;98233.06;4204692;84;28591;-79
2020/12/25 01:06:00;;;;;;;4.80;3.00;;;;;;;3.81;100.00;98228.16;4186313;85;28566;-83
2020/12/25 01:12:03;;;;;;;4.67;2.90;;;;;;;3.85;100.00;98232.03;4160904;84;28577;-84
2020/12/25 01:18:07;;;;;;;5.78;3.60;;;;;;;3.93;100.00;98238.47;4168416;85;28594;-83
2020/12/25 01:24:09;;;;;;;6.20;3.10;;;;;;;4.04;100.00;98225.86;4168105;85;28650;-83
2020/12/25 01:36:25;;;;;;;7.12;4.00;;;;;;;4.08;100.00;98236.90;4512334;79;80181;-82
2020/12/25 01:42:27;;;;;;;5.30;3.75;;;;;;;4.04;100.00;98240.48;4447171;80;28557;-79
2020/12/25 01:48:29;;;;;;;5.35;3.80;;;;;;;4.03;100.00;98246.83;4424935;80;28604;-80
2020/12/25 01:54:32;;;;;;;7.05;4.00;;;;;;;3.99;100.00;98256.77;4371907;80;28551;-81
2020/12/25 02:00:34;;;;;;;6.35;3.75;;;;;;;3.81;100.00;98252.09;4405367;80;28567;-80
2020/12/25 02:06:39;;;;;;;8.13;4.90;;;;;;;3.80;100.00;98255.28;4391396;80;28602;-81
2020/12/25 02:12:41;;;;;;;6.50;4.40;;;;;;;3.80;100.00;98255.78;4424597;80;28565;-80
2020/12/25 02:18:44;;;;;;;5.95;4.17;;;;;;;3.86;100.00;98269.06;4393706;80;28947;-81
2020/12/25 02:24:46;;;;;;;8.15;5.22;;;;;;;3.87;100.00;98275.22;4346649;82;28677;-82
2020/12/25 02:30:48;;;;;;;7.60;4.72;;;;;;;3.91;100.00;98283.08;4208067;83;28599;-82
2020/12/25 02:36:50;;;;;;;8.00;4.83;;;;;;;3.97;100.00;98290.73;4346816;81;28551;-82
2020/12/25 02:42:52;;;;;;;7.47;4.58;;;;;;;3.92;100.00;98292.69;4255731;83;28550;-82
2020/12/25 02:48:55;;;;;;;7.22;4.95;;;;;;;3.78;100.00;98296.39;4306782;82;28596;-82
2020/12/25 02:54:58;;;;;;;10.40;5.72;;;;;;;3.81;100.00;98290.66;4324286;81;28582;-83
2020/12/25 03:01:00;;;;;;;8.08;4.97;;;;;;;3.79;100.00;98296.69;4310641;82;28648;-83
2020/12/25 03:07:02;;;;;;;9.95;5.78;;;;;;;3.83;100.00;98297.41;4373924;81;28565;-83
2020/12/25 03:13:04;;;;;;;8.18;5.12;;;;;;;3.84;100.00;98306.19;4320701;82;28588;-83
2020/12/25 03:19:06;;;;;;;8.78;5.72;;;;;;;3.92;100.00;98309.97;4373516;81;28591;-83
2020/12/25 03:25:08;;;;;;;9.53;5.30;;;;;;;3.94;100.00;98320.42;4320564;82;28586;-83
2020/12/25 03:31:10;;;;;;;8.50;5.40;;;;;;;3.93;100.00;98324.91;4373585;81;28640;-82
2020/12/25 03:37:12;;;;;;;8.38;5.53;;;;;;;3.81;100.00;98343.34;4365367;81;28632;-83
2020/12/25 03:43:14;;;;;;;8.05;4.87;;;;;;;3.74;100.00;98343.84;4294099;83;28571;-82
2020/12/25 03:49:16;;;;;;;8.45;4.92;;;;;;;3.79;100.00;98350.67;4365163;81;28577;-83
2020/12/25 03:55:19;;;;;;;7.53;4.30;;;;;;;3.83;100.00;98353.25;4292930;83;28624;-81
2020/12/25 04:01:21;;;;;;;6.30;4.10;;;;;;;3.70;100.00;98359.90;4312904;81;28572;-80
2020/12/25 04:07:23;;;;;;;4.92;3.40;;;;;;;3.79;100.00;98366.62;4261805;83;28585;-81
2020/12/25 04:13:25;;;;;;;4.87;2.90;;;;;;;3.74;100.00;98374.41;4308767;81;28573;-80
2020/12/25 04:19:27;;;;;;;4.40;2.75;;;;;;;3.50;100.00;98380.63;4305925;81;28577;-80
2020/12/25 04:25:29;;;;;;;4.67;2.75;;;;;;;3.66;100.00;98379.42;4234541;81;28585;-79
2020/12/25 04:31:31;;;;;;;3.83;2.35;;;;;;;3.74;100.00;98392.50;4282589;82;28606;-79
2020/12/25 04:37:33;;;;;;;4.25;2.70;;;;;;;3.76;100.00;98398.95;4219344;83;28565;-79
2020/12/25 04:43:38;;;;;;;3.67;2.40;;;;;;;3.71;100.00;98409.39;4261508;83;28599;-79
2020/12/25 04:49:40;;;;;;;2.77;1.95;;;;;;;3.67;100.00;98424.92;4235794;83;28620;-78
2020/12/25 04:55:42;;;;;;;5.00;2.87;;;;;;;3.60;100.00;98425.41;4287859;83;28585;-79
2020/12/25 05:01:44;;;;;;;3.70;2.37;;;;;;;3.52;100.00;98420.27;4305585;83;28578;-81
2020/12/25 05:07:49;;;;;;;4.20;2.50;;;;;;;3.63;100.00;98425.83;4305045;82;28557;-80
2020/12/25 05:13:54;;;;;;;3.60;2.40;;;;;;;3.64;100.00;98431.95;4304775;83;28570;-80
2020/12/25 05:19:56;;;;;;;4.92;2.85;;;;;;;3.60;100.00;98439.53;4308356;82;28585;-81
2020/12/25 05:25:59;;;;;;;5.37;3.37;;;;;;;3.63;100.00;98437.80;4278336;83;28718;-81
2020/12/25 05:32:03;;;;;;;4.33;2.90;;;;;;;3.61;100.00;98431.86;4310275;82;28691;-81
2020/12/25 05:38:11;;;;;;;4.80;2.98;;;;;;;3.39;100.00;98437.02;4326460;82;28605;-82
2020/12/25 05:44:13;;;;;;;4.67;3.02;;;;;;;3.52;100.00;98458.81;4364793;82;28566;-81
2020/12/25 05:50:20;;;;;;;3.33;2.37;;;;;;;3.48;100.00;98463.70;4292300;83;28614;-80
2020/12/25 05:56:22;;;;;;;4.83;3.12;;;;;;;3.58;100.00;98466.00;4318161;81;28556;-79
2020/12/25 06:02:24;;;;;;;4.47;3.20;;;;;;;3.67;100.00;98486.57;4263749;83;28570;-79
2020/12/25 06:08:36;;;;;;;5.28;3.42;;;;;;;3.75;100.00;98485.06;4299199;83;28646;-78
2020/12/25 06:14:38;;;;;;;5.17;3.00;;;;;;;3.73;100.00;98489.77;4299499;83;28569;-79
2020/12/25 06:20:57;;;;;;;5.95;3.85;;;;;;;3.63;100.00;98509.58;4276307;83;28648;-80
2020/12/25 06:27:03;;;;;;;6.03;3.67;;;;;;;3.77;100.00;98512.27;4300475;83;28586;-80
2020/12/25 06:33:06;;;;;;;;;;;;;;;3.81;100.00;98508.70;4284891;83;28578;-80
2020/12/25 06:39:16;;;;;;;6.15;3.45;;;;;;;3.75;100.00;98522.30;4305324;82;20536;-82
2020/12/25 06:45:20;;;;;;;3.65;2.35;;;;;;;3.78;100.00;98526.40;4410936;80;28614;-84
2020/12/25 06:51:22;;;;;;;3.70;2.77;;;;;;;3.81;100.00;98531.31;4406756;80;28617;-82
2020/12/25 06:57:27;;;;;;;4.47;3.05;;;;;;;3.89;100.00;98543.91;4402257;80;28548;-82
2020/12/25 07:03:35;;;;;;;4.03;2.60;;;;;;;3.93;100.00;98547.52;4268187;81;28585;-82
2020/12/25 07:09:41;;;;;;;5.10;2.70;;;;;;;3.72;100.00;98551.42;4337378;81;28538;-80
2020/12/25 07:15:45;;;;;;;5.20;2.70;;;;;;;3.85;100.00;98553.32;4344507;81;28558;-82
2020/12/25 07:21:47;;;;;;;5.35;2.62;;;;;;;3.85;100.00;98571.10;4255079;83;28623;-83
2020/12/25 07:27:50;;;;;;;4.55;3.00;;;;;;;3.78;100.00;98577.73;4260248;82;28573;-84
2020/12/25 07:33:58;;;;;;;5.70;3.27;;;;;;;3.86;100.00;98582.08;4370809;81;28615;-84
2020/12/25 07:40:06;;;;;;;6.37;3.25;;;;;;;3.88;100.00;98592.00;4269853;83;28571;-84
2020/12/25 07:46:12;;;;;;;5.62;3.40;;;;;;;3.79;100.00;98593.99;4284656;81;28600;-84
2020/12/25 07:52:15;;;;;;;7.58;3.40;;;;;;;3.74;100.00;98607.08;4300295;81;28628;-81
2020/12/25 07:58:19;;;;;;;4.95;3.12;;;;;;;3.64;100.00;98606.09;4243453;83;28588;-81
2020/12/25 08:04:21;;;;;;;7.15;3.80;;;;;;;3.71;100.00;98604.81;4290069;81;28603;-82
2020/12/25 08:10:25;;;;;;;5.80;3.20;;;;;;;3.74;100.00;98623.83;4241529;83;28555;-82
2020/12/25 08:16:29;;;;;;;5.45;3.42;;;;;;;3.79;100.00;98628.56;4298096;80;28590;-85
2020/12/25 08:22:31;;;;;;;5.10;3.25;;;;;;;3.73;100.00;98632.83;4273550;83;28616;-81
2020/12/25 08:28:34;;;;;;;5.95;3.27;;;;;;;3.83;100.00;98637.80;4314869;81;28582;-84
2020/12/25 08:34:39;;;;;;;4.90;3.02;;;;;;;3.90;100.00;98647.14;4245404;83;28658;-88
2020/12/25 08:40:45;;;;;;;5.50;3.05;;;;;;;3.80;100.00;98650.17;4234527;83;28591;-82
2020/12/25 08:46:47;;;;;;;5.97;3.15;;;;;;;3.84;100.00;98653.23;4324983;81;28585;-86
2020/12/25 08:52:49;;;;;;;5.08;3.27;;;;;;;3.89;100.00;98676.89;4311950;80;28586;-80
2020/12/25 08:59:05;;;;;;;6.05;3.20;;;;;;;3.93;100.00;98680.52;4284254;80;28562;-80
2020/12/25 09:05:07;;;;;;;4.75;2.98;;;;;;;3.93;100.00;98683.17;4221836;83;28549;-87
2020/12/25 09:11:23;;;;;;;4.87;3.15;;;;;;;4.03;100.00;98675.66;4290898;82;28634;-85
2020/12/25 09:17:25;;;;;;;4.77;2.87;;;;;;;4.03;100.00;98686.30;4256797;81;28546;-85
2020/12/25 09:23:28;;;;;;;7.50;4.37;;;;;;;4.01;100.00;98690.47;4267777;83;28543;-80
2020/12/25 09:29:32;;;;;;;7.70;3.35;;;;;;;4.03;100.00;98683.63;4240028;83;28582;-82
2020/12/25 09:35:34;;;;;;;5.08;3.12;;;;;;;4.15;100.00;98687.38;4305669;81;28559;-80
2020/12/25 09:41:36;;;;;;;4.10;2.70;;;;;;;4.02;100.00;98682.80;4321875;81;28620;-79
2020/12/25 09:47:39;;;;;;;7.37;3.70;;;;;;;3.98;100.00;98680.23;4295073;82;28595;-85
2020/12/25 09:53:41;;;;;;;6.20;3.52;;;;;;;4.02;100.00;98684.13;4337917;81;28579;-84
2020/12/25 09:59:43;;;;;;;6.15;3.50;;;;;;;4.15;100.00;98675.40;4254948;81;28579;-85
2020/12/25 10:05:46;;;;;;;4.85;3.20;;;;;;;4.08;100.00;98687.03;4300109;81;28578;-86
2020/12/25 10:11:54;;;;;;;6.15;3.12;;;;;;;4.16;100.00;98692.17;4286058;81;28668;-85
2020/12/25 10:17:56;;;;;;;6.80;3.90;;;;;;;4.42;100.00;98692.78;4276374;82;28556;-82
2020/12/25 10:23:58;;;;;;;7.65;3.60;;;;;;;4.57;100.00;98695.81;4293852;81;28618;-77
2020/12/25 10:30:01;;;;;;;9.10;4.67;;;;;;;4.70;100.00;98702.50;4287080;82;28618;-84
2020/12/25 10:36:03;;;;;;;9.05;4.85;;;;;;;4.77;100.00;98703.84;4252815;81;29094;-80
2020/12/25 10:42:10;;;;;;;7.47;4.30;;;;;;;4.84;100.00;98694.03;4223447;83;28599;-78
2020/12/25 10:48:12;;;;;;;8.08;4.40;;;;;;;4.83;100.00;98695.06;4224767;83;28563;-84
2020/12/25 10:54:14;;;;;;;8.45;5.35;;;;;;;4.83;100.00;98698.22;4240758;83;28580;-82
2020/12/25 11:00:16;;;;;;;9.48;5.53;;;;;;;4.77;100.00;98700.38;4252309;82;28584;-83
2020/12/25 11:06:19;;;;;;;12.25;5.78;;;;;;;4.87;100.00;98704.28;4257617;82;28663;-85
2020/12/25 11:12:21;;;;;;;13.32;7.95;;;;;;;5.03;100.00;98703.07;4343786;80;28589;-79
2020/12/25 11:18:23;;;;;;;10.63;6.78;;;;;;;5.29;100.00;98701.96;4332717;80;28604;-78
2020/12/25 11:24:26;;;;;;;9.63;6.45;;;;;;;5.19;100.00;98702.38;4184789;84;28664;-78
2020/12/25 11:30:28;;;;;;;12.98;7.90;;;;;;;5.02;100.00;98703.30;4202162;84;28557;-78
2020/12/25 11:36:35;;;;;;;12.58;7.22;;;;;;;5.06;100.00;98705.05;4270267;81;28636;-78
2020/12/25 11:42:37;;;;;;;10.85;5.47;;;;;;;5.03;100.00;98707.07;4250681;83;28596;-78
2020/12/25 11:48:39;;;;;;;7.47;4.85;;;;;;;5.03;100.00;98708.40;4419990;80;28560;-78
2020/12/25 11:54:42;;;;;;;11.63;6.60;;;;;;;5.12;100.00;98708.21;4413441;79;28594;-79
2020/12/25 12:00:44;;;;;;;16.87;8.83;;;;;;;5.20;100.00;98709.35;4451759;80;28642;-79
2020/12/25 12:06:47;;;;;;;15.13;9.30;;;;;;;5.18;100.00;98710.08;4280849;83;28631;-78
2020/12/25 12:12:49;;;;;;;19.37;10.23;;;;;;;5.08;100.00;98705.66;4318728;81;28559;-79
2020/12/25 12:18:53;;;;;;;20.88;11.60;;;;;;;5.40;100.00;98705.34;4238062;81;28629;-79
2020/12/25 12:24:55;;;;;;;21.95;12.03;;;;;;;5.40;100.00;98712.54;4329103;81;28571;-79
2020/12/25 12:30:58;;;;;;;19.60;10.95;;;;;;;5.41;100.00;98723.51;4419136;80;28582;-79
2020/12/25 12:37:00;;;;;;;17.82;10.23;;;;;;;5.34;100.00;98718.18;4397968;78;28555;-79
2020/12/25 12:43:02;;;;;;;24.05;12.80;;;;;;;5.35;100.00;98726.98;4292235;81;28564;-78
2020/12/25 12:49:04;;;;;;;21.57;11.80;;;;;;;5.37;100.00;98732.95;4307020;81;28588;-78
2020/12/25 12:55:06;;;;;;;19.05;11.28;;;;;;;5.25;100.00;98730.87;4309305;81;28569;-78
2020/12/25 13:01:10;;;;;;;21.70;12.00;;;;;;;5.14;100.00;98728.31;4278894;82;28584;-80
2020/12/25 13:07:12;;;;;;;21.77;12.25;;;;;;;5.13;100.00;98734.67;4318987;81;28550;-78
2020/12/25 13:13:14;;;;;;;17.87;10.40;;;;;;;5.23;100.00;98730.26;4275974;82;28604;-79
2020/12/25 13:19:17;;;;;;;21.50;10.98;;;;;;;5.14;100.00;98740.80;4315534;81;28590;-79
2020/12/25 13:25:19;;;;;;;17.55;10.13;;;;;;;5.02;100.00;98748.06;4317380;80;28576;-78
2020/12/25 13:31:24;;;;;;;22.37;13.00;;;;;;;5.04;100.00;98754.53;4325201;81;28989;-79
2020/12/25 13:37:26;;;;;;;21.17;12.00;;;;;;;5.04;100.00;98761.20;4313145;81;28566;-79
2020/12/25 13:43:28;;;;;;;19.50;10.82;;;;;;;4.95;100.00;98760.58;4301561;81;28565;-78
2020/12/25 13:49:31;;;;;;;20.30;10.90;;;;;;;4.92;100.00;98759.62;4321318;81;28597;-78
2020/12/25 13:55:33;;;;;;;20.15;11.85;;;;;;;4.98;100.00;98765.98;4318751;81;28550;-79
2020/12/25 14:01:35;;;;;;;9.23;5.20;;;;;;;4.88;100.00;98781.03;4336810;81;28575;-78
2020/12/25 14:07:37;;;;;;;5.90;4.15;;;;;;;4.11;100.00;98789.87;4326380;81;28582;-79
2020/12/25 14:13:40;;;;;;;7.55;3.17;;;;;;;4.17;100.00;98795.76;4329970;81;28574;-78
2020/12/25 14:19:42;;;;;;;6.28;3.33;;;;;;;3.85;100.00;98804.65;4327595;81;28611;-79
2020/12/25 14:25:44;;;;;;;5.28;3.08;;;;;;;3.83;100.00;98808.02;4292736;81;28567;-79
2020/12/25 14:31:48;;;;;;;6.62;3.00;;;;;;;3.55;100.00;98814.12;4299712;80;28645;-78
2020/12/25 14:37:50;;;;;;;6.17;3.20;;;;;;;3.62;100.00;98816.34;4328033;81;28546;-78
2020/12/25 14:43:52;;;;;;;6.80;4.17;;;;;;;3.68;100.00;98824.05;4313549;81;28617;-78
2020/12/25 14:49:54;;;;;;;10.35;4.47;;;;;;;3.63;100.00;98839.25;4339375;81;28566;-78
2020/12/25 14:55:56;;;;;;;7.50;3.98;;;;;;;3.49;100.00;98847.59;4327396;81;28566;-79
2020/12/25 15:01:58;;;;;;;6.30;3.08;;;;;;;3.68;100.00;98853.30;4355692;80;28668;-78
2020/12/25 15:08:00;;;;;;;6.08;3.12;;;;;;;3.31;100.00;98863.98;4287661;82;28548;-78
2020/12/25 15:14:03;;;;;;;4.85;2.40;;;;;;;3.26;100.00;98874.34;4334495;81;28570;-78
2020/12/25 15:20:05;;;;;;;5.65;2.90;;;;;;;3.46;100.00;98873.73;4333352;81;28564;-78
2020/12/25 15:26:09;;;;;;;8.20;3.72;;;;;;;3.38;100.00;98882.66;4317644;80;28587;-83
2020/12/25 15:32:11;;;;;;;7.05;3.02;;;;;;;3.16;100.00;98881.30;4306917;82;28578;-79
2020/12/25 15:38:13;;;;;;;8.48;3.10;;;;;;;3.14;100.00;98899.26;4327018;80;28560;-75
2020/12/25 15:44:15;;;;;;;7.22;3.42;;;;;;;2.97;100.00;98904.45;4264381;83;28557;-85
2020/12/25 15:50:17;;;;;;;8.48;3.80;;;;;;;2.97;100.00;98909.27;4310442;80;28562;-84
2020/12/25 15:56:24;;;;;;;5.75;3.00;;;;;;;2.87;100.00;98907.41;4265465;81;28613;-85
2020/12/25 16:02:26;;;;;;;8.33;4.12;;;;;;;2.86;100.00;98913.69;4326566;81;28544;-89
2020/12/25 16:08:28;;;;;;;8.45;4.10;;;;;;;2.84;100.00;98917.05;4234594;83;28574;-91
2020/12/25 16:14:30;;;;;;;5.53;2.72;;;;;;;2.60;100.00;98919.81;4328044;81;28633;-86
2020/12/25 16:20:32;;;;;;;6.87;3.30;;;;;;;2.61;100.00;98916.63;4249117;82;28620;-87
2020/12/25 16:26:35;;;;;;;6.90;3.65;;;;;;;2.51;100.00;98926.20;4317939;80;28574;-82
2020/12/25 16:32:41;;;;;;;6.25;3.22;;;;;;;2.48;100.00;98939.33;4244722;81;28585;-85
2020/12/25 16:38:43;;;;;;;6.67;3.83;;;;;;;2.34;100.00;98942.76;4311320;81;28544;-82
2020/12/25 16:44:45;;;;;;;7.55;3.60;;;;;;;2.38;100.00;98942.73;4249180;81;28570;-83
2020/12/25 16:50:48;;;;;;;7.20;3.52;;;;;;;2.32;100.00;98942.13;4317313;82;28627;-84
2020/12/25 16:56:51;;;;;;;7.58;3.60;;;;;;;2.37;100.00;98949.86;4233516;81;28608;-89
2020/12/25 17:02:53;;;;;;;8.88;4.05;;;;;;;2.44;100.00;98964.55;4324591;80;28604;-84
2020/12/25 17:08:59;;;;;;;8.80;4.35;;;;;;;2.59;100.00;98968.56;4247523;83;28553;-83
2020/12/25 17:15:01;;;;;;;7.90;3.97;;;;;;;2.48;100.00;98975.16;4327885;80;28606;-78
2020/12/25 17:21:16;;;;;;;10.00;4.47;;;;;;;2.42;100.00;98975.86;4332162;82;28613;-80
2020/12/25 17:27:21;;;;;;;9.58;4.67;;;;;;;2.50;100.00;98982.95;4224466;81;28652;-78
2020/12/25 17:33:22;;;;;;;7.12;3.50;;;;;;;2.45;100.00;98987.46;4315393;80;28559;-78
2020/12/25 17:39:24;;;;;;;9.60;4.37;;;;;;;2.42;100.00;98985.15;4325375;81;28568;-78
2020/12/25 17:45:26;;;;;;;10.53;4.97;;;;;;;2.61;100.00;98997.11;4328389;82;28573;-78
2020/12/25 17:51:29;;;;;;;11.90;5.28;;;;;;;2.45;100.00;99003.88;4307390;82;28549;-79
2020/12/25 17:57:31;;;;;;;10.72;5.40;;;;;;;2.46;100.00;99002.87;4220959;83;28651;-79
2020/12/25 18:03:33;;;;;;;9.08;4.05;;;;;;;2.49;100.00;98997.19;4271233;82;28558;-78
2020/12/25 18:09:37;;;;;;;13.70;5.83;;;;;;;2.50;100.00;99003.66;4257722;81;28574;-76
2020/12/25 18:15:39;;;;;;;10.80;5.08;;;;;;;2.52;100.00;99000.84;4321995;81;28604;-77
2020/12/25 18:21:41;;;;;;;9.93;5.30;;;;;;;2.50;100.00;99002.33;4237219;83;28555;-79
2020/12/25 18:27:43;;;;;;;10.38;4.60;;;;;;;2.68;100.00;98999.02;4299132;82;28581;-78
2020/12/25 18:33:45;;;;;;;11.55;5.25;;;;;;;2.56;100.00;99006.09;4233019;81;28561;-78
2020/12/25 18:39:47;;;;;;;8.65;4.53;;;;;;;2.46;100.00;99018.80;4220924;83;28634;-80
2020/12/25 18:45:49;;;;;;;10.72;5.30;;;;;;;2.48;100.00;99016.78;4339093;80;28540;-80
2020/12/25 18:51:52;;;;;;;13.83;6.20;;;;;;;2.70;100.00;99021.73;4326854;80;28634;-84
2020/12/25 18:57:55;;;;;;;17.50;7.15;;;;;;;2.66;100.00;99025.77;4300035;82;28561;-84
2020/12/25 19:03:57;;;;;;;17.37;7.33;;;;;;;2.65;100.00;99038.69;4343025;80;28622;-82
2020/12/25 19:09:59;;;;;;;20.30;8.68;;;;;;;2.62;100.00;99041.23;4260926;83;28549;-79
2020/12/25 19:16:06;;;;;;;20.70;9.10;;;;;;;2.60;100.00;99038.42;4282177;81;28568;-80
2020/12/25 19:22:11;;;;;;;18.40;8.70;;;;;;;2.58;100.00;99051.86;4328848;81;28544;-80
2020/12/25 19:28:13;;;;;;;18.10;8.88;;;;;;;2.54;100.00;99060.36;4282463;82;28601;-80
2020/12/25 19:34:20;;;;;;;21.25;9.65;;;;;;;2.52;100.00;99065.86;4318144;81;28608;-81
2020/12/25 19:40:22;;;;;;;18.80;8.33;;;;;;;2.56;100.00;99074.30;4245901;82;28581;-81
2020/12/25 19:46:29;;;;;;;15.63;8.03;;;;;;;2.41;100.00;99083.53;4237525;82;28577;-83
2020/12/25 19:52:31;;;;;;;17.98;7.80;;;;;;;2.42;100.00;99079.36;4303963;82;28564;-82
2020/12/25 19:58:33;;;;;;;16.97;7.28;;;;;;;2.47;100.00;99085.45;4320392;80;28663;-82
2020/12/25 20:04:35;;;;;;;17.07;7.80;;;;;;;2.50;100.00;99085.13;4259021;83;28585;-80
2020/12/25 20:10:38;;;;;;;17.85;8.03;;;;;;;2.29;100.00;99087.92;4319303;80;28569;-80
2020/12/25 20:16:40;;;;;;;17.50;7.72;;;;;;;2.27;100.00;99092.55;4261297;83;28608;-81
2020/12/25 20:22:43;;;;;;;16.48;7.05;;;;;;;2.37;100.00;99092.34;4326752;80;28638;-80
2020/12/25 20:28:45;;;;;;;16.52;7.30;;;;;;;2.30;100.00;99090.90;4237346;82;28583;-80
2020/12/25 20:34:48;;;;;;;15.38;6.83;;;;;;;2.23;100.00;99096.05;4332636;82;28625;-82
2020/12/25 20:40:50;;;;;;;14.07;6.05;;;;;;;2.17;100.00;99102.08;4302701;81;28609;-81
2020/12/25 20:47:02;;;;;;;11.12;5.83;;;;;;;2.20;100.00;99103.56;4313230;81;28585;-80
2020/12/25 20:53:05;;;;;;;14.95;5.97;;;;;;;2.29;100.00;99109.15;4328708;81;28621;-76
2020/12/25 20:59:08;;;;;;;10.68;5.10;;;;;;;2.08;100.00;99117.22;4326202;81;28540;-76
2020/12/25 21:05:10;;;;;;;14.25;5.70;;;;;;;2.01;100.00;99126.02;4309176;81;28573;-76
2020/12/25 21:11:12;;;;;;;10.70;4.87;;;;;;;2.02;100.00;99128.52;4339212;81;28611;-76
2020/12/25 21:17:15;;;;;;;13.03;5.60;;;;;;;2.11;100.00;99131.94;4341697;81;28964;-75
2020/12/25 21:23:17;;;;;;;14.75;6.00;;;;;;;2.06;100.00;99144.91;4318311;81;28575;-78
2020/12/25 21:29:21;;;;;;;13.45;5.92;;;;;;;2.01;100.00;99154.71;4312352;81;28597;-77
2020/12/25 21:35:23;;;;;;;13.88;6.55;;;;;;;2.05;100.00;99162.64;4331255;81;28645;-78
2020/12/25 21:41:25;;;;;;;13.88;6.35;;;;;;;1.98;100.00;99159.53;4343039;81;28580;-77
2020/12/25 21:47:27;;;;;;;18.02;8.08;;;;;;;1.77;100.00;99164.91;4346584;81;43922;-76
2020/12/25 21:53:30;;;;;;;16.60;7.20;;;;;;;1.72;100.00;99158.79;4326454;81;28681;-77
2020/12/25 21:59:33;;;;;;;12.98;6.28;;;;;;;1.70;100.00;99157.30;4340459;81;28641;-77
2020/12/25 22:05:35;;;;;;;14.73;6.10;;;;;;;1.77;100.00;99162.25;4307553;81;28638;-77
2020/12/25 22:11:37;;;;;;;14.15;6.30;;;;;;;1.63;100.00;99163.30;4327371;81;28625;-78
2020/12/25 22:17:39;;;;;;;11.25;4.78;;;;;;;1.63;100.00;99161.97;4341907;81;28931;-77
2020/12/25 22:23:42;;;;;;;10.95;4.75;;;;;;;1.61;100.00;99164.45;4306151;81;28602;-76
2020/12/25 22:29:47;;;;;;;9.00;4.35;;;;;;;1.81;100.00;99163.55;4303942;81;28543;-77
2020/12/25 22:35:48;;;;;;;8.23;3.80;;;;;;;1.59;100.00;99163.29;4353205;81;28591;-76
2020/12/25 22:41:51;;;;;;;7.17;3.50;;;;;;;1.49;100.00;99162.66;4304042;81;28575;-76
2020/12/25 22:47:53;;;;;;;9.53;4.45;;;;;;;1.55;100.00;99173.07;4260797;83;28566;-77
2020/12/25 22:53:56;;;;;;;10.35;4.67;;;;;;;1.60;100.00;99166.78;4248059;83;28552;-77
2020/12/25 22:59:58;;;;;;;10.35;4.67;;;;;;;1.55;100.00;99167.77;4300924;82;28589;-77
2020/12/25 23:06:00;;;;;;;12.15;5.85;;;;;;;1.53;100.00;99168.77;4263280;83;28653;-77
2020/12/25 23:12:03;;;;;;;12.70;5.28;;;;;;;1.67;100.00;99177.05;4320462;82;28564;-77
2020/12/25 23:18:05;;;;;;;13.18;6.42;;;;;;;1.71;100.00;99178.34;4274520;81;28555;-78
2020/12/25 23:24:07;;;;;;;16.20;7.65;;;;;;;1.72;100.00;99177.34;4260833;81;28587;-78
2020/12/25 23:30:10;;;;;;;14.23;7.42;;;;;;;1.74;100.00;99189.11;4251909;81;28546;-78
2020/12/25 23:36:15;;;;;;;13.83;7.05;;;;;;;1.80;100.00;99184.44;4309494;82;28562;-78
2020/12/25 23:42:17;;;;;;;14.90;6.40;;;;;;;1.78;100.00;99192.58;4326304;81;28601;-79
2020/12/25 23:48:20;;;;;;;13.58;6.50;;;;;;;1.83;100.00;99191.23;4328734;81;28603;-77
2020/12/25 23:54:22;;;;;;;14.15;6.42;;;;;;;1.78;100.00;99186.44;4343458;81;28641;-77
